Time;durP1;ratioP1;P1;durP2;ratioP2;P2;SDS_P1;SDS_P2;PMS_P1;PMS_P2;Temp;Humidity;BMP_temperature;BMP_pressure;BME280_temperature;BME280_humidity;BME280_pressure;Samples;Min_cycle;Max_cycle;Signal;HPM_P1;HPM_P2
2022/12/04 00:01:14;;;;;;;28.10;19.40;;;;;;;7.27;100.00;98201.94;5057736;28;20041;-94
2022/12/04 00:03:41;;;;;;;23.60;15.60;;;;;;;7.31;100.00;98190.38;5095292;28;20047;-95
2022/12/04 00:06:09;;;;;;;21.80;14.60;;;;;;;7.41;100.00;98198.94;5061407;28;20052;-94
2022/12/04 00:08:36;;;;;;;24.55;15.75;;;;;;;7.42;100.00;98184.84;5055440;28;20494;-96
2022/12/04 00:11:03;;;;;;;20.38;13.82;;;;;;;7.57;100.00;98184.47;5058538;28;20053;-95
2022/12/04 00:13:31;;;;;;;20.88;13.65;;;;;;;7.51;100.00;98160.81;5063183;28;20086;-96
2022/12/04 00:15:58;;;;;;;22.00;14.60;;;;;;;7.55;100.00;98175.69;5060917;28;20108;-95
2022/12/04 00:18:24;;;;;;;23.35;15.82;;;;;;;7.46;100.00;98146.81;5062035;28;20040;-94
2022/12/04 00:20:50;;;;;;;22.65;14.55;;;;;;;7.47;100.00;98145.91;5059399;28;20128;-95
2022/12/04 00:23:16;;;;;;;21.13;14.23;;;;;;;7.49;100.00;98138.81;5062939;28;20431;-95
2022/12/04 00:25:47;;;;;;;21.52;14.50;;;;;;;7.59;100.00;98150.03;5063787;28;20490;-95
2022/12/04 00:28:13;;;;;;;22.42;13.90;;;;;;;7.37;100.00;98105.59;5061156;28;20040;-94
2022/12/04 00:30:42;;;;;;;20.13;13.50;;;;;;;7.44;100.00;98101.03;5059479;28;20044;-94
2022/12/04 00:33:08;;;;;;;20.92;12.27;;;;;;;7.62;100.00;98155.25;5055947;28;20063;-95
2022/12/04 00:35:34;;;;;;;20.42;13.25;;;;;;;7.50;100.00;98159.03;5058863;28;20371;-95
2022/12/04 00:38:00;;;;;;;22.42;14.13;;;;;;;7.61;100.00;98159.69;5056999;28;20059;-96
2022/12/04 00:40:26;;;;;;;23.42;14.95;;;;;;;7.64;100.00;98158.72;5067647;28;20040;-95
2022/12/04 00:42:52;;;;;;;22.58;13.20;;;;;;;7.74;100.00;98167.28;5059515;28;20111;-94
2022/12/04 00:45:18;;;;;;;20.30;13.57;;;;;;;7.48;100.00;98137.06;5058065;28;20047;-96
2022/12/04 00:47:45;;;;;;;20.45;12.70;;;;;;;7.56;100.00;98142.16;5072253;28;20036;-96
2022/12/04 00:50:11;;;;;;;20.40;12.50;;;;;;;7.80;100.00;98159.19;5069106;28;20044;-94
2022/12/04 00:52:37;;;;;;;18.42;11.70;;;;;;;7.82;100.00;98176.75;5060647;28;20048;-96
2022/12/04 00:55:04;;;;;;;18.88;11.13;;;;;;;7.80;100.00;98167.13;5069947;28;20036;-94
2022/12/04 00:57:30;;;;;;;16.60;10.63;;;;;;;7.79;100.00;98155.69;5057414;28;20490;-95
2022/12/04 00:59:55;;;;;;;16.92;11.10;;;;;;;7.95;100.00;98145.56;5077316;28;20135;-94
2022/12/04 01:02:21;;;;;;;16.70;10.65;;;;;;;8.06;100.00;98141.75;5068964;28;20175;-96
2022/12/04 01:04:49;;;;;;;16.17;10.85;;;;;;;8.14;100.00;98147.72;5062557;28;20048;-95
2022/12/04 01:07:15;;;;;;;15.23;9.73;;;;;;;8.05;100.00;98137.38;5069298;28;20042;-95
2022/12/04 01:09:41;;;;;;;15.48;9.68;;;;;;;8.03;100.00;98129.47;5074452;28;20056;-96
2022/12/04 01:12:07;;;;;;;16.38;9.00;;;;;;;8.37;100.00;98155.91;5074926;28;20044;-94
2022/12/04 01:14:33;;;;;;;12.77;8.13;;;;;;;8.40;100.00;98137.28;5076347;28;20413;-94
2022/12/04 01:16:58;;;;;;;11.98;7.47;;;;;;;8.41;100.00;98131.09;5075395;28;20067;-96
2022/12/04 01:19:24;;;;;;;10.80;7.10;;;;;;;8.55;100.00;98158.97;5068052;28;20052;-95
2022/12/04 01:21:52;;;;;;;12.35;7.25;;;;;;;8.48;100.00;98145.03;5068502;28;20490;-96
2022/12/04 01:24:17;;;;;;;11.40;7.45;;;;;;;8.55;100.00;98140.44;5098814;28;20119;-95
2022/12/04 01:26:43;;;;;;;11.68;6.68;;;;;;;8.58;100.00;98132.38;5065798;28;20170;-94
2022/12/04 01:29:09;;;;;;;10.25;6.68;;;;;;;8.46;100.00;98119.47;5071591;28;20099;-95
2022/12/04 01:31:35;;;;;;;11.75;7.15;;;;;;;8.54;100.00;98128.06;5105787;28;20036;-95
2022/12/04 01:34:01;;;;;;;9.75;6.05;;;;;;;8.50;100.00;98118.47;5068936;28;20068;-96
2022/12/04 01:36:27;;;;;;;9.68;6.10;;;;;;;8.48;100.00;98115.00;5070156;28;20059;-95
2022/12/04 01:38:55;;;;;;;10.07;6.00;;;;;;;8.72;100.00;98146.09;5068012;28;20126;-95
2022/12/04 01:41:23;;;;;;;8.73;5.80;;;;;;;8.66;100.00;98132.16;5066036;28;20045;-95
2022/12/04 01:44:09;;;;;;;8.75;5.80;;;;;;;8.49;100.00;98128.22;5068671;28;20457;-95
2022/12/04 01:46:35;;;;;;;8.27;5.75;;;;;;;8.46;100.00;98132.72;5068913;28;20040;-95
2022/12/04 01:49:02;;;;;;;8.13;5.70;;;;;;;8.45;100.00;98150.41;5098669;28;20040;-94
2022/12/04 01:51:33;;;;;;;8.57;5.00;;;;;;;8.32;100.00;98136.59;5094152;28;20048;-95
2022/12/04 01:54:04;;;;;;;7.63;5.30;;;;;;;8.33;100.00;98156.03;5070192;28;20478;-95
2022/12/04 01:56:35;;;;;;;6.95;4.65;;;;;;;8.32;100.00;98157.78;5063128;28;20044;-95
2022/12/04 01:59:02;;;;;;;8.50;5.32;;;;;;;8.22;100.00;98138.66;5063852;28;20131;-94
2022/12/04 02:01:33;;;;;;;6.88;5.05;;;;;;;8.23;100.00;98139.50;5065613;28;20132;-94
2022/12/04 02:04:01;;;;;;;8.98;4.82;;;;;;;8.32;100.00;98143.69;5065517;28;20075;-95
2022/12/04 02:06:27;;;;;;;7.93;5.10;;;;;;;8.50;100.00;98158.22;5068339;28;20041;-94
2022/12/04 02:08:53;;;;;;;8.02;4.50;;;;;;;8.40;100.00;98144.34;5071653;28;20127;-94
2022/12/04 02:11:30;;;;;;;8.02;4.40;;;;;;;8.39;100.00;98143.47;5066134;28;20041;-95
2022/12/04 02:14:05;;;;;;;8.98;4.55;;;;;;;8.32;100.00;98133.94;5061168;28;20067;-92
2022/12/04 02:16:40;;;;;;;6.60;4.30;;;;;;;8.48;100.00;98144.13;5061952;28;20041;-94
2022/12/04 02:19:40;;;;;;;7.40;4.47;;;;;;;8.55;100.00;98162.47;5068086;28;20041;-95
2022/12/04 02:22:21;;;;;;;12.18;6.78;;;;;;;8.42;100.00;98161.97;5060923;28;20068;-95
2022/12/04 02:24:52;;;;;;;13.25;5.97;;;;;;;8.52;100.00;98174.94;5060241;28;20049;-95
2022/12/04 02:27:35;;;;;;;9.35;4.63;;;;;;;8.46;100.00;98164.50;5069562;28;20040;-93
2022/12/04 02:30:06;;;;;;;5.93;4.07;;;;;;;8.42;100.00;98156.66;5064393;28;20047;-92
2022/12/04 02:32:39;;;;;;;8.68;4.55;;;;;;;8.48;100.00;98157.38;5067212;28;20036;-96
2022/12/04 02:35:10;;;;;;;7.57;4.60;;;;;;;8.36;100.00;98129.44;5065272;28;20040;-94
2022/12/04 02:37:42;;;;;;;8.90;4.15;;;;;;;8.52;100.00;98173.19;5062582;28;20032;-94
2022/12/04 02:40:15;;;;;;;7.45;3.90;;;;;;;8.39;100.00;98166.44;5105476;28;20040;-95
2022/12/04 02:42:44;;;;;;;8.23;4.60;;;;;;;8.36;100.00;98156.78;5065414;28;20036;-94
2022/12/04 02:45:15;;;;;;;5.95;3.97;;;;;;;8.29;100.00;98147.28;5059640;28;20041;-95
2022/12/04 02:47:43;;;;;;;8.20;3.97;;;;;;;8.38;100.00;98159.41;5041749;28;20445;-95
2022/12/04 02:50:12;;;;;;;6.55;3.80;;;;;;;8.29;100.00;98144.66;5073364;28;20045;-93
2022/12/04 02:52:41;;;;;;;;;;;;;;;8.35;100.00;98164.78;5040131;28;20128;-93
2022/12/04 02:55:11;;;;;;;10.15;4.25;;;;;;;8.14;100.00;98131.84;5042498;28;19979;-95
2022/12/04 02:57:42;;;;;;;6.95;4.53;;;;;;;8.11;100.00;98147.78;5039990;28;20048;-95
2022/12/04 03:00:09;;;;;;;6.63;4.45;;;;;;;8.17;100.00;98159.06;5045073;28;20053;-96
2022/12/04 03:02:41;;;;;;;6.18;4.47;;;;;;;8.10;100.00;98164.59;5042729;28;20037;-95
2022/12/04 03:05:11;;;;;;;7.18;4.63;;;;;;;8.06;100.00;98152.34;5036183;28;20047;-94
2022/12/04 03:07:43;;;;;;;6.45;4.10;;;;;;;8.08;100.00;98156.69;5040580;28;20037;-94
2022/12/04 03:10:14;;;;;;;6.40;4.40;;;;;;;7.95;100.00;98137.59;5039588;28;20042;-94
2022/12/04 03:12:45;;;;;;;7.00;4.68;;;;;;;8.00;100.00;98135.72;5038745;28;20517;-95
2022/12/04 03:15:16;;;;;;;6.63;4.30;;;;;;;8.11;100.00;98156.63;5037189;28;20498;-94
2022/12/04 03:17:50;;;;;;;7.97;4.80;;;;;;;8.21;100.00;98165.16;5066622;28;20103;-94
2022/12/04 03:20:17;;;;;;;8.13;5.28;;;;;;;8.13;100.00;98156.56;5034066;28;20049;-93
2022/12/04 03:22:47;;;;;;;10.48;6.60;;;;;;;8.17;100.00;98161.72;5042930;28;20120;-95
2022/12/04 03:25:13;;;;;;;11.48;7.22;;;;;;;8.11;100.00;98153.06;5039734;28;20053;-94
2022/12/04 03:27:50;;;;;;;11.25;7.88;;;;;;;8.06;100.00;98158.50;5078507;28;20044;-96
2022/12/04 03:30:20;;;;;;;12.35;7.53;;;;;;;8.12;100.00;98173.38;5041718;28;20037;-96
2022/12/04 03:32:53;;;;;;;14.77;7.93;;;;;;;8.00;100.00;98169.25;5070987;28;20560;-94
2022/12/04 03:35:24;;;;;;;20.45;10.48;;;;;;;7.99;100.00;98171.03;5041803;28;20079;-95
2022/12/04 03:37:55;;;;;;;21.00;11.05;;;;;;;7.94;100.00;98170.31;5039124;28;20077;-94
2022/12/04 03:40:25;;;;;;;22.52;11.88;;;;;;;7.97;100.00;98174.66;5039231;28;20552;-95
2022/12/04 03:42:58;;;;;;;20.75;12.80;;;;;;;7.93;100.00;98173.84;5042643;28;20068;-95
2022/12/04 03:45:28;;;;;;;19.73;12.63;;;;;;;7.83;100.00;98167.06;5047325;28;20049;-94
2022/12/04 03:47:58;;;;;;;;;;;;;;;7.95;100.00;98201.16;5069729;28;20169;-95
2022/12/04 03:50:32;;;;;;;20.50;12.93;;;;;;;7.68;100.00;98164.81;5091032;28;19994;-94
2022/12/04 03:53:05;;;;;;;18.77;13.18;;;;;;;7.77;100.00;98180.47;5060336;28;20055;-95
2022/12/04 03:55:38;;;;;;;20.88;13.68;;;;;;;7.82;100.00;98199.72;5068340;28;20036;-94
2022/12/04 03:58:08;;;;;;;25.52;16.40;;;;;;;7.65;100.00;98172.81;5072111;28;20099;-95
2022/12/04 04:00:39;;;;;;;24.10;14.35;;;;;;;7.79;100.00;98199.81;5067107;28;20042;-94
2022/12/04 04:03:10;;;;;;;25.48;15.98;;;;;;;7.76;100.00;98191.94;5067319;28;20043;-95
2022/12/04 04:05:40;;;;;;;24.23;15.77;;;;;;;7.74;100.00;98197.28;5058097;28;20040;-94
2022/12/04 04:11:15;;;;;;;25.75;17.67;;;;;;;7.77;100.00;98214.88;5132345;27;20383;-95
2022/12/04 04:26:17;;;;;;;24.90;16.45;;;;;;;7.82;100.00;98223.53;5153459;27;20723;-94
2022/12/04 04:28:43;;;;;;;25.63;15.90;;;;;;;7.76;100.00;98210.47;5134909;27;20492;-94
2022/12/04 04:31:20;;;;;;;19.73;13.80;;;;;;;7.88;100.00;98230.47;5134671;27;20053;-94
2022/12/04 04:33:54;;;;;;;21.48;14.43;;;;;;;7.81;100.00;98214.75;5134600;27;20031;-94
2022/12/04 04:36:27;;;;;;;17.52;11.30;;;;;;;7.83;100.00;98214.72;5133146;27;20061;-94
2022/12/04 04:39:01;;;;;;;16.48;11.13;;;;;;;7.95;100.00;98230.28;5133865;27;20069;-95
2022/12/04 04:41:36;;;;;;;18.35;10.70;;;;;;;7.94;100.00;98228.53;5134328;27;20075;-94
2022/12/04 04:44:14;;;;;;;16.85;11.10;;;;;;;8.11;100.00;98251.06;5134363;27;20042;-95
2022/12/04 04:46:46;;;;;;;18.05;11.18;;;;;;;8.11;100.00;98243.13;5134410;27;20046;-94
2022/12/04 04:49:14;;;;;;;12.32;8.77;;;;;;;8.12;100.00;98247.53;5135058;27;20063;-96
2022/12/04 04:51:42;;;;;;;14.38;9.85;;;;;;;8.08;100.00;98241.44;5134578;27;20088;-93
2022/12/04 04:54:12;;;;;;;13.13;9.15;;;;;;;8.10;100.00;98244.91;5134414;27;20035;-94
2022/12/04 04:56:45;;;;;;;15.02;10.05;;;;;;;8.17;100.00;98256.22;5134556;27;20460;-93
2022/12/04 04:59:11;;;;;;;15.50;10.40;;;;;;;8.13;100.00;98251.91;5134656;27;20492;-95
2022/12/04 05:01:38;;;;;;;13.73;9.68;;;;;;;8.13;100.00;98251.91;5135318;27;20039;-94
2022/12/04 05:04:05;;;;;;;14.98;10.20;;;;;;;8.06;100.00;98229.13;5134451;27;20431;-94
2022/12/04 05:06:31;;;;;;;14.82;10.35;;;;;;;8.18;100.00;98255.31;5134295;27;20511;-93
2022/12/04 05:08:57;;;;;;;16.42;11.27;;;;;;;8.11;100.00;98246.66;5134208;27;20042;-93
2022/12/04 05:11:23;;;;;;;19.75;11.27;;;;;;;8.17;100.00;98262.38;5134756;27;20043;-94
2022/12/04 05:13:51;;;;;;;21.35;12.25;;;;;;;8.16;100.00;98258.00;5134318;27;20049;-94
2022/12/04 05:16:17;;;;;;;16.40;11.90;;;;;;;8.12;100.00;98256.34;5133632;27;20083;-93
2022/12/04 05:19:52;;;;;;;16.88;11.30;;;;;;;8.07;100.00;98252.94;5134412;27;20047;-95
2022/12/04 05:21:29;;;;;;;17.70;10.68;;;;;;;8.16;100.00;98276.53;5119659;27;20091;-93
2022/12/04 05:23:55;;;;;;;16.52;11.00;;;;;;;8.10;100.00;98260.78;5133447;27;20039;-94
2022/12/04 05:26:21;;;;;;;17.98;10.80;;;;;;;8.08;100.00;98264.41;5133932;27;20537;-95
2022/12/04 05:28:47;;;;;;;16.45;11.07;;;;;;;8.00;100.00;98253.97;5133405;27;20488;-94
2022/12/04 05:31:14;;;;;;;16.38;11.27;;;;;;;8.02;100.00;98265.41;5132934;27;20043;-94
2022/12/04 05:33:40;;;;;;;16.80;10.95;;;;;;;8.21;100.00;98311.72;5133666;27;20043;-95
2022/12/04 05:36:08;;;;;;;16.48;11.05;;;;;;;8.19;100.00;98310.00;5127954;27;20039;-94
2022/12/04 05:38:35;;;;;;;19.25;10.50;;;;;;;8.05;100.00;98293.63;5119118;27;20039;-92
2022/12/04 05:41:03;;;;;;;15.07;10.63;;;;;;;8.10;100.00;98299.66;5118731;27;20049;-94
2022/12/04 05:43:30;;;;;;;17.00;10.63;;;;;;;8.07;100.00;98297.97;5118703;27;20126;-93
2022/12/04 05:45:59;;;;;;;17.42;10.82;;;;;;;7.98;100.00;98293.75;5118288;27;20054;-94
2022/12/04 05:48:27;;;;;;;15.27;9.88;;;;;;;7.97;100.00;98299.94;5118866;27;20039;-92
2022/12/04 05:50:52;;;;;;;16.15;9.93;;;;;;;8.11;100.00;98325.22;5118729;27;20118;-92
2022/12/04 05:53:18;;;;;;;13.50;9.07;;;;;;;8.03;100.00;98313.03;5117567;27;20392;-92
2022/12/04 05:55:52;;;;;;;12.23;8.75;;;;;;;8.10;100.00;98329.66;5117855;27;20043;-94
2022/12/04 05:58:18;;;;;;;12.88;8.18;;;;;;;8.09;100.00;98334.97;5119165;27;20035;-94
2022/12/04 06:00:44;;;;;;;13.35;8.40;;;;;;;8.01;100.00;98320.16;5119697;27;20049;-93
2022/12/04 06:03:10;;;;;;;13.00;8.80;;;;;;;8.19;100.00;98349.75;5122107;27;20039;-94
2022/12/04 06:05:37;;;;;;;13.43;8.48;;;;;;;7.97;100.00;98321.13;5123878;27;20481;-94
2022/12/04 06:08:03;;;;;;;12.20;7.90;;;;;;;8.02;100.00;98319.25;5123425;27;20502;-94
2022/12/04 06:10:29;;;;;;;12.25;7.60;;;;;;;8.10;100.00;98323.50;5132086;27;20136;-93
2022/12/04 06:12:56;;;;;;;12.43;7.63;;;;;;;8.28;100.00;98362.75;5132464;27;20039;-94
2022/12/04 06:15:22;;;;;;;11.52;7.70;;;;;;;8.07;100.00;98334.13;5131919;27;20122;-95
2022/12/04 06:17:49;;;;;;;12.38;7.90;;;;;;;8.17;100.00;98347.13;5132805;27;20046;-93
2022/12/04 06:20:15;;;;;;;13.65;7.57;;;;;;;8.19;100.00;98352.38;5133502;27;20389;-94
2022/12/04 06:22:42;;;;;;;10.65;7.72;;;;;;;8.08;100.00;98334.09;5132733;27;20046;-95
2022/12/04 06:25:09;;;;;;;11.63;7.78;;;;;;;8.06;100.00;98335.06;5132118;27;20160;-95
2022/12/04 06:27:35;;;;;;;11.60;7.22;;;;;;;8.07;100.00;98342.97;5132546;27;20104;-96
2022/12/04 06:30:02;;;;;;;11.98;7.60;;;;;;;8.17;100.00;98362.16;5133014;27;20047;-94
2022/12/04 06:32:28;;;;;;;11.68;6.88;;;;;;;8.10;100.00;98342.03;5133668;27;20142;-95
2022/12/04 06:34:54;;;;;;;11.13;6.32;;;;;;;8.12;100.00;98342.88;5133487;27;20111;-96
2022/12/04 06:37:23;;;;;;;11.35;6.90;;;;;;;8.23;100.00;98349.63;5132624;27;20048;-95
2022/12/04 06:39:51;;;;;;;9.23;6.05;;;;;;;8.43;100.00;98388.91;5130701;27;20046;-96
2022/12/04 06:42:17;;;;;;;9.38;5.85;;;;;;;8.23;100.00;98354.06;5131189;27;20043;-96
2022/12/04 06:44:45;;;;;;;9.40;6.28;;;;;;;8.27;100.00;98368.97;5131958;27;20442;-96
2022/12/04 06:47:11;;;;;;;12.93;7.03;;;;;;;8.26;100.00;98359.28;5130471;27;20035;-95
2022/12/04 06:49:37;;;;;;;11.80;6.80;;;;;;;8.34;100.00;98365.25;5130432;27;20046;-96
2022/12/04 06:52:04;;;;;;;9.82;6.85;;;;;;;8.38;100.00;98374.00;5131108;27;20113;-96
2022/12/04 06:54:30;;;;;;;10.38;7.03;;;;;;;8.55;100.00;98405.44;5129782;27;20492;-95
2022/12/04 06:56:58;;;;;;;11.00;6.68;;;;;;;8.38;100.00;98366.94;5129267;27;20043;-96
2022/12/04 06:59:24;;;;;;;13.43;7.40;;;;;;;8.43;100.00;98370.34;5128944;27;20100;-96
2022/12/04 07:01:50;;;;;;;13.35;7.63;;;;;;;8.38;100.00;98360.75;5129299;27;20039;-96
2022/12/04 07:04:17;;;;;;;12.05;7.03;;;;;;;8.39;100.00;98363.38;5130291;27;20047;-96
2022/12/04 07:06:46;;;;;;;8.75;5.70;;;;;;;8.42;100.00;98370.41;5130603;27;20047;-96
2022/12/04 07:09:14;;;;;;;8.18;5.38;;;;;;;8.68;100.00;98406.00;5130895;27;20039;-95
2022/12/04 07:11:41;;;;;;;9.23;4.88;;;;;;;8.51;100.00;98383.44;5130924;27;20044;-95
2022/12/04 07:14:09;;;;;;;9.25;4.68;;;;;;;8.57;100.00;98387.72;5131364;27;20068;-95
2022/12/04 07:16:36;;;;;;;8.65;5.15;;;;;;;8.57;100.00;98377.97;5131298;27;20043;-94
2022/12/04 07:19:02;;;;;;;12.63;5.28;;;;;;;8.75;100.00;98411.09;5131672;27;20072;-95
2022/12/04 07:21:33;;;;;;;7.00;4.55;;;;;;;8.65;100.00;98383.06;5130874;27;20047;-95
2022/12/04 07:24:00;;;;;;;9.27;4.38;;;;;;;8.64;100.00;98382.22;5131243;27;20047;-94
2022/12/04 07:26:28;;;;;;;8.43;5.05;;;;;;;8.70;100.00;98382.97;5130502;27;20067;-95
2022/12/04 07:28:55;;;;;;;7.38;4.50;;;;;;;8.85;100.00;98406.44;5130898;27;20045;-94
2022/12/04 07:31:24;;;;;;;7.75;4.22;;;;;;;8.86;100.00;98396.69;5131636;27;20431;-95
2022/12/04 07:33:52;;;;;;;;;;;;;;;9.13;100.00;98432.22;5131275;27;20058;-95
2022/12/04 07:36:21;;;;;;;7.90;4.05;;;;;;;8.96;100.00;98412.31;5131461;27;19919;-95
2022/12/04 07:38:48;;;;;;;9.93;4.97;;;;;;;8.99;100.00;98421.97;5131588;27;20064;-95
2022/12/04 07:41:14;;;;;;;9.02;5.60;;;;;;;8.98;100.00;98414.94;5130151;27;20043;-94
2022/12/04 07:43:41;;;;;;;7.57;4.95;;;;;;;9.03;100.00;98415.69;5130142;27;20047;-95
2022/12/04 07:46:09;;;;;;;7.18;4.40;;;;;;;9.03;100.00;98418.34;5130171;27;20112;-96
2022/12/04 07:48:37;;;;;;;11.95;5.40;;;;;;;9.15;100.00;98447.19;5129518;27;20054;-95
2022/12/04 07:51:04;;;;;;;10.35;7.30;;;;;;;9.22;100.00;98456.72;5129450;27;20051;-94
2022/12/04 07:53:30;;;;;;;9.57;5.85;;;;;;;9.22;100.00;98451.41;5129702;27;20050;-95
2022/12/04 07:55:57;;;;;;;9.77;5.93;;;;;;;9.16;100.00;98424.19;5129755;27;20039;-95
2022/12/04 07:58:23;;;;;;;7.80;5.63;;;;;;;9.26;100.00;98425.69;5129750;27;20054;-95
2022/12/04 08:00:49;;;;;;;11.48;6.50;;;;;;;9.38;100.00;98432.44;5128912;27;20047;-94
2022/12/04 08:03:15;;;;;;;7.60;5.03;;;;;;;9.45;100.00;98426.03;5126100;27;20075;-96
2022/12/04 08:05:42;;;;;;;8.80;4.20;;;;;;;9.58;100.00;98439.81;5123281;27;20068;-94
2022/12/04 08:08:08;;;;;;;6.72;4.15;;;;;;;9.63;100.00;98441.44;5121566;27;20045;-93
2022/12/04 08:10:34;;;;;;;10.50;4.00;;;;;;;9.71;100.00;98457.16;5119061;27;20130;-94
2022/12/04 08:13:00;;;;;;;7.95;4.22;;;;;;;9.59;100.00;98433.63;5118077;27;20526;-94
2022/12/04 08:15:26;;;;;;;10.88;4.30;;;;;;;9.58;100.00;98437.19;5118727;28;20039;-94
2022/12/04 08:17:52;;;;;;;7.93;4.15;;;;;;;9.73;100.00;98465.06;5118726;27;20069;-95
2022/12/04 08:20:17;;;;;;;8.23;4.32;;;;;;;9.72;100.00;98458.03;5119737;27;20399;-95
2022/12/04 08:22:45;;;;;;;11.40;4.70;;;;;;;9.74;100.00;98465.03;5118476;28;20381;-96
2022/12/04 08:25:11;;;;;;;10.77;5.50;;;;;;;9.79;100.00;98470.22;5118730;28;20043;-94
2022/12/04 08:27:37;;;;;;;7.63;4.38;;;;;;;9.77;100.00;98470.25;5120660;28;20115;-93
2022/12/04 08:30:03;;;;;;;10.27;4.35;;;;;;;9.86;100.00;98475.28;5117849;28;20404;-95
2022/12/04 08:32:29;;;;;;;15.05;5.35;;;;;;;9.99;100.00;98490.88;5118697;28;20100;-96
2022/12/04 08:34:55;;;;;;;12.18;5.20;;;;;;;9.88;100.00;98472.59;5119376;28;20442;-95
2022/12/04 08:37:21;;;;;;;8.65;4.97;;;;;;;10.01;100.00;98492.56;5118846;28;20115;-94
2022/12/04 08:39:48;;;;;;;7.38;4.63;;;;;;;9.94;100.00;98479.53;5118685;28;20067;-94
2022/12/04 08:42:14;;;;;;;9.60;5.68;;;;;;;10.12;100.00;98488.72;5117501;28;20050;-94
2022/12/04 08:44:40;;;;;;;9.35;5.30;;;;;;;10.21;100.00;98493.75;5118129;28;20043;-94
2022/12/04 08:47:06;;;;;;;13.10;4.50;;;;;;;10.21;100.00;98492.00;5115880;28;20053;-93
2022/12/04 08:49:32;;;;;;;11.20;4.03;;;;;;;10.21;100.00;98480.47;5116390;28;20412;-93
2022/12/04 08:51:58;;;;;;;5.40;2.13;;;;;;;10.52;100.00;98520.34;5114910;28;20073;-94
2022/12/04 08:54:23;;;;;;;7.68;1.98;;;;;;;10.51;100.00;98520.38;5115099;28;20437;-92
2022/12/04 08:56:51;;;;;;;3.75;1.95;;;;;;;10.52;100.00;98514.13;5115799;28;20050;-94
2022/12/04 08:59:17;;;;;;;8.25;2.33;;;;;;;10.66;100.00;98519.91;5116126;28;20035;-92
2022/12/04 09:01:43;;;;;;;5.28;2.60;;;;;;;10.63;100.00;98518.22;5114392;28;20534;-92
2022/12/04 09:04:08;;;;;;;7.32;3.20;;;;;;;10.61;100.00;98511.19;5115460;28;20106;-92
2022/12/04 09:06:34;;;;;;;5.47;2.83;;;;;;;10.51;100.00;98504.41;5115652;28;20566;-94
2022/12/04 09:09:00;;;;;;;8.45;3.30;;;;;;;10.64;100.00;98533.22;5116385;28;20039;-91
2022/12/04 09:11:28;;;;;;;6.63;2.95;;;;;;;10.50;100.00;98508.00;5116752;27;20377;-95
2022/12/04 09:13:55;;;;;;;6.57;3.30;;;;;;;10.58;100.00;98527.22;5119019;27;20043;-94
2022/12/04 09:16:22;;;;;;;8.70;5.03;;;;;;;10.63;100.00;98538.63;5117766;27;20051;-93
2022/12/04 09:18:48;;;;;;;9.98;4.53;;;;;;;10.69;100.00;98536.63;5119064;27;20050;-92
2022/12/04 09:21:16;;;;;;;8.48;3.53;;;;;;;10.66;100.00;98535.84;5117969;27;20043;-93
2022/12/04 09:23:42;;;;;;;8.32;3.42;;;;;;;10.53;100.00;98531.84;5117651;27;20043;-93
2022/12/04 09:26:17;;;;;;;5.53;2.88;;;;;;;10.52;100.00;98530.97;5118894;27;20138;-93
2022/12/04 09:28:43;;;;;;;8.05;3.00;;;;;;;10.69;100.00;98576.53;5117712;27;20389;-92
2022/12/04 09:31:11;;;;;;;4.60;3.10;;;;;;;10.51;100.00;98550.47;5118572;27;20104;-92
2022/12/04 09:33:36;;;;;;;8.77;4.78;;;;;;;10.47;100.00;98559.47;5117218;27;20035;-92
2022/12/04 09:36:03;;;;;;;7.65;3.58;;;;;;;10.41;100.00;98559.63;5120384;27;20492;-92
2022/12/04 09:38:29;;;;;;;13.35;4.82;;;;;;;10.40;100.00;98560.56;5117593;27;20043;-93
2022/12/04 09:41:02;;;;;;;6.88;3.53;;;;;;;10.39;100.00;98565.03;5119404;27;20092;-94
2022/12/04 09:43:33;;;;;;;12.57;5.72;;;;;;;10.50;100.00;98569.16;5118528;27;20043;-92
2022/12/04 09:46:04;;;;;;;25.58;16.45;;;;;;;10.30;100.00;98544.03;5117051;27;20545;-93
2022/12/04 09:48:34;;;;;;;27.48;16.65;;;;;;;10.44;100.00;98571.06;5118640;27;20049;-92
2022/12/04 09:51:02;;;;;;;29.05;12.30;;;;;;;10.50;100.00;98563.84;5118949;27;20142;-94
2022/12/04 09:53:40;;;;;;;30.05;13.18;;;;;;;10.62;100.00;98572.28;5116005;27;20058;-93
2022/12/04 09:56:11;;;;;;;13.40;6.43;;;;;;;10.77;100.00;98573.63;5117767;27;20557;-93
2022/12/04 09:58:43;;;;;;;17.05;7.60;;;;;;;10.77;100.00;98570.09;5117590;27;20388;-91
2022/12/04 10:01:21;;;;;;;11.05;5.80;;;;;;;10.92;100.00;98572.28;5117164;27;20046;-92
2022/12/04 10:03:49;;;;;;;13.38;5.90;;;;;;;11.02;100.00;98564.88;5117661;27;20074;-92
2022/12/04 10:06:20;;;;;;;15.68;6.93;;;;;;;11.14;100.00;98563.59;5116235;27;20034;-92
2022/12/04 10:08:52;;;;;;;8.68;5.47;;;;;;;11.28;100.00;98553.38;5115856;27;20126;-93
2022/12/04 10:11:24;;;;;;;11.80;6.88;;;;;;;11.36;100.00;98545.13;5116663;27;20035;-93
2022/12/04 10:14:12;;;;;;;10.00;4.95;;;;;;;11.55;100.00;98551.56;5117188;27;20420;-93
2022/12/04 10:17:03;;;;;;;7.10;3.85;;;;;;;11.74;100.00;98557.13;5116511;27;20098;-93
2022/12/04 10:19:38;;;;;;;7.70;4.10;;;;;;;11.85;100.00;98543.41;5113978;27;20043;-93
2022/12/04 10:22:13;;;;;;;10.70;4.53;;;;;;;11.98;100.00;98542.06;5114392;27;20035;-95
2022/12/04 10:24:44;;;;;;;10.05;4.53;;;;;;;12.15;100.00;98543.28;5114491;27;20123;-92
2022/12/04 10:27:16;;;;;;;11.07;4.60;;;;;;;12.15;100.00;98541.47;5117883;27;20051;-93
2022/12/04 10:29:46;;;;;;;8.23;5.25;;;;;;;12.24;100.00;98562.44;5116306;27;20035;-93
2022/12/04 10:32:21;;;;;;;9.40;3.88;;;;;;;12.14;100.00;98547.69;5119312;27;20061;-93
2022/12/04 10:34:53;;;;;;;6.20;3.13;;;;;;;11.99;100.00;98533.19;5118009;27;20433;-92
2022/12/04 10:37:21;;;;;;;9.68;2.80;;;;;;;12.01;100.00;98563.28;5120258;27;20039;-94
2022/12/04 10:39:53;;;;;;;7.70;2.75;;;;;;;11.98;100.00;98565.19;5122273;27;20069;-93
2022/12/04 10:42:34;;;;;;;8.65;3.17;;;;;;;11.98;100.00;98563.41;5122069;27;20047;-95
2022/12/04 10:45:00;;;;;;;7.47;2.80;;;;;;;12.08;100.00;98554.16;5122605;27;20039;-94
2022/12/04 10:47:27;;;;;;;5.85;2.70;;;;;;;11.94;100.00;98523.59;5124771;27;20066;-95
2022/12/04 10:49:59;;;;;;;8.95;3.67;;;;;;;12.03;100.00;98544.56;5120468;27;20047;-93
2022/12/04 10:52:25;;;;;;;8.25;3.28;;;;;;;11.97;100.00;98542.13;5120838;27;20039;-95
2022/12/04 10:54:56;;;;;;;6.53;3.55;;;;;;;12.15;100.00;98553.94;5121920;27;20092;-94
2022/12/04 10:57:35;;;;;;;6.53;2.58;;;;;;;12.35;100.00;98556.72;5121562;27;20510;-95
2022/12/04 11:00:01;;;;;;;5.43;2.58;;;;;;;12.52;99.75;98535.59;5119730;27;20385;-95
2022/12/04 11:02:30;;;;;;;10.02;2.92;;;;;;;12.71;97.25;98505.56;5121348;27;20088;-94
2022/12/04 11:04:59;;;;;;;6.75;2.30;;;;;;;13.15;92.96;98543.75;5121998;27;20103;-94
2022/12/04 11:07:27;;;;;;;6.25;2.63;;;;;;;12.98;93.66;98540.91;5120737;27;20115;-95
2022/12/04 11:09:56;;;;;;;3.53;2.17;;;;;;;12.60;93.80;98507.75;5122427;27;20137;-94
2022/12/04 11:12:22;;;;;;;6.38;2.85;;;;;;;12.60;95.06;98537.97;5119323;27;20561;-95
2022/12/04 11:14:59;;;;;;;4.38;2.35;;;;;;;12.47;96.90;98539.34;5119168;27;20488;-95
2022/12/04 11:17:25;;;;;;;10.98;4.60;;;;;;;12.44;98.06;98520.81;5118422;27;20064;-95
2022/12/04 11:20:00;;;;;;;9.52;3.40;;;;;;;12.76;97.82;98518.69;5121491;27;20099;-95
2022/12/04 11:22:27;;;;;;;11.55;5.35;;;;;;;13.25;93.57;98536.25;5118702;27;20500;-96
2022/12/04 11:24:55;;;;;;;8.40;3.88;;;;;;;13.60;91.00;98541.03;5123279;27;20039;-93
2022/12/04 11:27:28;;;;;;;5.13;3.60;;;;;;;13.74;89.37;98520.81;5121325;27;20039;-96
2022/12/04 11:29:55;;;;;;;8.35;3.20;;;;;;;13.61;87.37;98503.59;5120197;27;20047;-93
2022/12/04 11:32:24;;;;;;;7.35;3.80;;;;;;;13.73;87.27;98532.44;5126648;27;20038;-94
2022/12/04 11:34:53;;;;;;;4.93;3.25;;;;;;;13.59;88.36;98524.16;5119066;27;20083;-95
2022/12/04 11:37:24;;;;;;;;;;;;;;;13.51;89.12;98543.19;5137212;27;20455;-93
2022/12/04 11:39:51;;;;;;;7.45;3.00;;;;;;;13.43;89.68;98517.75;5121801;27;20112;-95
2022/12/04 11:42:22;;;;;;;7.22;3.83;;;;;;;13.47;88.98;98519.34;5118496;27;20056;-94
2022/12/04 11:44:54;;;;;;;6.80;3.40;;;;;;;13.59;88.91;98525.97;5118857;27;20420;-96
2022/12/04 11:47:22;;;;;;;9.93;4.30;;;;;;;13.62;87.57;98529.38;5118889;27;20093;-95
2022/12/04 11:50:00;;;;;;;7.45;3.20;;;;;;;13.52;87.24;98517.34;5118406;27;20066;-95